sensor_id;sensor_type;location;lat;lon;timestamp;pressure;altitude;pressure_sealevel;temperature;humidity
38716;BME280;24833;49.324;8.694;2023-03-05T00:01:29;100181.84;;;3.47;64.75
38716;BME280;24833;49.324;8.694;2023-03-05T00:04:00;100183.53;;;3.48;63.36
38716;BME280;24833;49.324;8.694;2023-03-05T00:06:29;100184.47;;;3.47;63.61
38716;BME280;24833;49.324;8.694;2023-03-05T00:08:57;100179.34;;;3.46;64.69
38716;BME280;24833;49.324;8.694;2023-03-05T00:11:27;100177.53;;;3.46;64.52
38716;BME280;24833;49.324;8.694;2023-03-05T00:13:56;100189.06;;;3.45;63.54
38716;BME280;24833;49.324;8.694;2023-03-05T00:16:24;100187.41;;;3.44;64.77
38716;BME280;24833;49.324;8.694;2023-03-05T00:18:56;100166.44;;;3.43;63.44
38716;BME280;24833;49.324;8.694;2023-03-05T00:21:32;100173.38;;;3.44;64.10
38716;BME280;24833;49.324;8.694;2023-03-05T00:24:01;100167.25;;;3.43;63.07
38716;BME280;24833;49.324;8.694;2023-03-05T00:26:29;100173.53;;;3.42;64.90
38716;BME280;24833;49.324;8.694;2023-03-05T00:28:57;100162.13;;;3.42;64.82
38716;BME280;24833;49.324;8.694;2023-03-05T00:31:28;100177.97;;;3.42;64.42
38716;BME280;24833;49.324;8.694;2023-03-05T00:34:03;100167.41;;;3.42;63.45
38716;BME280;24833;49.324;8.694;2023-03-05T00:36:31;100165.72;;;3.41;64.40
38716;BME280;24833;49.324;8.694;2023-03-05T00:38:59;100160.44;;;3.41;65.13
38716;BME280;24833;49.324;8.694;2023-03-05T00:41:26;100159.59;;;3.40;63.97
38716;BME280;24833;49.324;8.694;2023-03-05T00:43:53;100160.44;;;3.41;63.77
38716;BME280;24833;49.324;8.694;2023-03-05T00:46:21;100161.31;;;3.41;63.54
38716;BME280;24833;49.324;8.694;2023-03-05T00:48:48;100156.97;;;3.40;63.91
38716;BME280;24833;49.324;8.694;2023-03-05T00:51:15;100156.03;;;3.41;63.40
38716;BME280;24833;49.324;8.694;2023-03-05T00:53:42;100161.31;;;3.41;63.09
38716;BME280;24833;49.324;8.694;2023-03-05T00:56:09;100151.69;;;3.40;63.09
38716;BME280;24833;49.324;8.694;2023-03-05T00:58:37;100151.56;;;3.42;62.94
38716;BME280;24833;49.324;8.694;2023-03-05T01:01:05;100145.47;;;3.41;62.88
38716;BME280;24833;49.324;8.694;2023-03-05T01:03:34;100138.38;;;3.42;63.13
38716;BME280;24833;49.324;8.694;2023-03-05T01:06:09;100144.50;;;3.42;62.53
38716;BME280;24833;49.324;8.694;2023-03-05T01:08:37;100135.59;;;3.43;62.97
38716;BME280;24833;49.324;8.694;2023-03-05T01:11:05;100133.78;;;3.44;62.99
38716;BME280;24833;49.324;8.694;2023-03-05T01:13:33;100138.22;;;3.43;62.77
38716;BME280;24833;49.324;8.694;2023-03-05T01:16:00;100127.69;;;3.43;63.83
38716;BME280;24833;49.324;8.694;2023-03-05T01:18:27;100124.22;;;3.43;62.94
38716;BME280;24833;49.324;8.694;2023-03-05T01:20:55;100125.19;;;3.42;62.95
38716;BME280;24833;49.324;8.694;2023-03-05T01:23:22;100127.00;;;3.41;62.94
38716;BME280;24833;49.324;8.694;2023-03-05T01:25:57;100116.44;;;3.41;62.64
38716;BME280;24833;49.324;8.694;2023-03-05T01:28:26;100112.09;;;3.40;63.08
38716;BME280;24833;49.324;8.694;2023-03-05T01:30:54;100120.16;;;3.39;62.66
38716;BME280;24833;49.324;8.694;2023-03-05T01:33:21;100109.75;;;3.37;63.04
38716;BME280;24833;49.324;8.694;2023-03-05T01:35:48;100102.00;;;3.36;62.69
38716;BME280;24833;49.324;8.694;2023-03-05T01:38:16;100103.81;;;3.35;62.87
38716;BME280;24833;49.324;8.694;2023-03-05T01:40:43;100102.09;;;3.34;62.81
38716;BME280;24833;49.324;8.694;2023-03-05T01:46:13;100096.16;;;3.32;62.63
38716;BME280;24833;49.324;8.694;2023-03-05T01:48:26;100097.13;;;3.31;62.75
38716;BME280;24833;49.324;8.694;2023-03-05T01:50:53;100094.63;;;3.30;62.66
38716;BME280;24833;49.324;8.694;2023-03-05T01:53:21;100095.63;;;3.28;62.71
38716;BME280;24833;49.324;8.694;2023-03-05T01:55:48;100096.44;;;3.29;62.52
38716;BME280;24833;49.324;8.694;2023-03-05T01:58:15;100092.97;;;3.28;62.51
38716;BME280;24833;49.324;8.694;2023-03-05T02:00:46;100089.63;;;3.26;62.60
38716;BME280;24833;49.324;8.694;2023-03-05T02:03:14;100083.50;;;3.26;62.49
38716;BME280;24833;49.324;8.694;2023-03-05T02:05:42;100087.13;;;3.25;62.63
38716;BME280;24833;49.324;8.694;2023-03-05T02:08:16;100095.03;;;3.25;62.54
38716;BME280;24833;49.324;8.694;2023-03-05T02:10:50;100084.50;;;3.25;62.49
38716;BME280;24833;49.324;8.694;2023-03-05T02:13:31;100087.97;;;3.25;62.38
38716;BME280;24833;49.324;8.694;2023-03-05T02:16:00;100081.84;;;3.25;62.56
38716;BME280;24833;49.324;8.694;2023-03-05T02:18:28;100082.69;;;3.25;62.69
38716;BME280;24833;49.324;8.694;2023-03-05T02:23:25;100076.56;;;3.25;62.58
38716;BME280;24833;49.324;8.694;2023-03-05T02:25:53;100074.09;;;3.23;62.37
38716;BME280;24833;49.324;8.694;2023-03-05T02:28:43;100074.09;;;3.23;62.25
38716;BME280;24833;49.324;8.694;2023-03-05T02:31:22;100076.72;;;3.23;62.54
38716;BME280;24833;49.324;8.694;2023-03-05T02:33:51;100073.25;;;3.23;62.72
38716;BME280;24833;49.324;8.694;2023-03-05T02:36:20;100065.34;;;3.23;62.77
38716;BME280;24833;49.324;8.694;2023-03-05T02:38:48;100058.41;;;3.22;62.48
38716;BME280;24833;49.324;8.694;2023-03-05T02:41:15;100057.56;;;3.21;62.58
38716;BME280;24833;49.324;8.694;2023-03-05T02:43:43;100062.84;;;3.21;62.32
38716;BME280;24833;49.324;8.694;2023-03-05T02:46:10;100055.78;;;3.22;62.68
38716;BME280;24833;49.324;8.694;2023-03-05T02:48:38;100054.06;;;3.21;62.45
38716;BME280;24833;49.324;8.694;2023-03-05T02:51:06;100050.50;;;3.22;62.46
38716;BME280;24833;49.324;8.694;2023-03-05T02:53:34;100044.50;;;3.20;62.31
38716;BME280;24833;49.324;8.694;2023-03-05T02:56:02;100042.84;;;3.19;62.36
38716;BME280;24833;49.324;8.694;2023-03-05T02:58:32;100047.13;;;3.20;62.45
38716;BME280;24833;49.324;8.694;2023-03-05T03:00:59;100049.09;;;3.18;62.57
38716;BME280;24833;49.324;8.694;2023-03-05T03:03:26;100038.53;;;3.18;62.70
38716;BME280;24833;49.324;8.694;2023-03-05T03:05:53;100037.72;;;3.17;62.50
38716;BME280;24833;49.324;8.694;2023-03-05T03:08:20;100035.22;;;3.16;62.60
38716;BME280;24833;49.324;8.694;2023-03-05T03:10:47;100030.78;;;3.16;62.65
38716;BME280;24833;49.324;8.694;2023-03-05T03:13:14;100028.28;;;3.15;62.54
38716;BME280;24833;49.324;8.694;2023-03-05T03:15:41;100023.00;;;3.15;62.53
38716;BME280;24833;49.324;8.694;2023-03-05T03:18:08;100023.00;;;3.15;62.58
38716;BME280;24833;49.324;8.694;2023-03-05T03:20:37;100020.38;;;3.15;62.61
38716;BME280;24833;49.324;8.694;2023-03-05T03:23:05;100018.56;;;3.15;62.41
38716;BME280;24833;49.324;8.694;2023-03-05T03:25:33;100009.81;;;3.15;62.66
38716;BME280;24833;49.324;8.694;2023-03-05T03:28:00;100012.47;;;3.15;62.59
38716;BME280;24833;49.324;8.694;2023-03-05T03:30:27;100009.81;;;3.15;62.50
38716;BME280;24833;49.324;8.694;2023-03-05T03:32:54;100009.81;;;3.15;62.54
38716;BME280;24833;49.324;8.694;2023-03-05T03:35:21;100008.97;;;3.14;62.60
38716;BME280;24833;49.324;8.694;2023-03-05T03:37:48;100010.78;;;3.14;62.58
38716;BME280;24833;49.324;8.694;2023-03-05T03:40:15;100002.84;;;3.14;62.66
38716;BME280;24833;49.324;8.694;2023-03-05T03:42:42;100000.22;;;3.14;62.77
38716;BME280;24833;49.324;8.694;2023-03-05T03:45:10;99997.56;;;3.14;62.52
38716;BME280;24833;49.324;8.694;2023-03-05T03:47:37;99997.72;;;3.12;62.71
38716;BME280;24833;49.324;8.694;2023-03-05T03:50:04;99991.63;;;3.12;62.52
38716;BME280;24833;49.324;8.694;2023-03-05T03:52:31;99995.25;;;3.11;62.44
38716;BME280;24833;49.324;8.694;2023-03-05T03:54:58;99997.88;;;3.11;62.45
38716;BME280;24833;49.324;8.694;2023-03-05T03:57:29;99999.69;;;3.10;62.55
38716;BME280;24833;49.324;8.694;2023-03-05T03:59:56;99998.03;;;3.09;62.60
38716;BME280;24833;49.324;8.694;2023-03-05T04:02:23;99991.91;;;3.09;62.55
38716;BME280;24833;49.324;8.694;2023-03-05T04:04:50;99993.56;;;3.10;62.63
38716;BME280;24833;49.324;8.694;2023-03-05T04:07:18;99991.91;;;3.09;62.55
38716;BME280;24833;49.324;8.694;2023-03-05T04:09:45;99991.09;;;3.08;62.65
38716;BME280;24833;49.324;8.694;2023-03-05T04:12:12;99993.84;;;3.07;62.55
38716;BME280;24833;49.324;8.694;2023-03-05T04:14:44;99992.19;;;3.06;62.18
38716;BME280;24833;49.324;8.694;2023-03-05T04:17:13;99980.81;;;3.05;62.55
38716;BME280;24833;49.324;8.694;2023-03-05T04:19:41;99982.63;;;3.05;62.62
38716;BME280;24833;49.324;8.694;2023-03-05T04:22:14;99981.63;;;3.06;62.51
38716;BME280;24833;49.324;8.694;2023-03-05T04:24:42;99984.41;;;3.04;62.48
38716;BME280;24833;49.324;8.694;2023-03-05T04:27:10;99978.31;;;3.04;62.47
38716;BME280;24833;49.324;8.694;2023-03-05T04:29:37;99985.25;;;3.05;62.50
38716;BME280;24833;49.324;8.694;2023-03-05T04:32:05;99979.16;;;3.04;62.45
38716;BME280;24833;49.324;8.694;2023-03-05T04:34:33;99983.59;;;3.04;62.55
38716;BME280;24833;49.324;8.694;2023-03-05T04:37:00;99978.31;;;3.04;62.55
38716;BME280;24833;49.324;8.694;2023-03-05T04:39:28;99978.31;;;3.04;62.42
38716;BME280;24833;49.324;8.694;2023-03-05T04:41:55;99973.03;;;3.04;62.68
38716;BME280;24833;49.324;8.694;2023-03-05T04:44:22;99978.31;;;3.04;62.75
38716;BME280;24833;49.324;8.694;2023-03-05T04:46:51;99967.75;;;3.04;63.08
38716;BME280;24833;49.324;8.694;2023-03-05T04:49:18;99964.97;;;3.05;64.33
38716;BME280;24833;49.324;8.694;2023-03-05T04:51:45;99972.06;;;3.05;63.22
38716;BME280;24833;49.324;8.694;2023-03-05T04:54:12;99966.09;;;3.03;63.08
38716;BME280;24833;49.324;8.694;2023-03-05T04:56:39;99963.47;;;3.03;63.64
38716;BME280;24833;49.324;8.694;2023-03-05T04:59:06;99965.28;;;3.02;63.46
38716;BME280;24833;49.324;8.694;2023-03-05T05:01:33;99962.75;;;3.00;64.24
38716;BME280;24833;49.324;8.694;2023-03-05T05:04:01;99965.41;;;3.00;63.72
38716;BME280;24833;49.324;8.694;2023-03-05T05:06:28;99968.03;;;3.00;63.28
38716;BME280;24833;49.324;8.694;2023-03-05T05:08:55;99966.38;;;2.99;62.94
38716;BME280;24833;49.324;8.694;2023-03-05T05:11:22;99960.28;;;2.99;62.94
38716;BME280;24833;49.324;8.694;2023-03-05T05:13:49;99962.91;;;2.99;63.20
38716;BME280;24833;49.324;8.694;2023-03-05T05:16:19;99959.44;;;2.98;64.17
38716;BME280;24833;49.324;8.694;2023-03-05T05:18:46;99956.94;;;2.97;64.34
38716;BME280;24833;49.324;8.694;2023-03-05T05:21:13;99951.69;;;2.97;64.09
38716;BME280;24833;49.324;8.694;2023-03-05T05:23:41;99949.03;;;2.97;63.63
38716;BME280;24833;49.324;8.694;2023-03-05T05:26:08;99950.84;;;2.96;63.34
38716;BME280;24833;49.324;8.694;2023-03-05T05:28:35;99956.13;;;2.96;63.33
38716;BME280;24833;49.324;8.694;2023-03-05T05:31:08;99955.28;;;2.96;63.37
38716;BME280;24833;49.324;8.694;2023-03-05T05:33:36;99950.16;;;2.94;63.35
38716;BME280;24833;49.324;8.694;2023-03-05T05:36:06;99961.66;;;2.93;64.69
38716;BME280;24833;49.324;8.694;2023-03-05T05:38:33;99949.47;;;2.92;63.80
38716;BME280;24833;49.324;8.694;2023-03-05T05:41:08;99959.03;;;2.93;63.17
38716;BME280;24833;49.324;8.694;2023-03-05T05:43:36;99960.00;;;2.92;63.26
38716;BME280;24833;49.324;8.694;2023-03-05T05:46:10;99957.38;;;2.92;63.14
38716;BME280;24833;49.324;8.694;2023-03-05T05:48:38;99957.38;;;2.92;63.24
38716;BME280;24833;49.324;8.694;2023-03-05T05:51:08;99955.72;;;2.91;63.69
38716;BME280;24833;49.324;8.694;2023-03-05T05:53:36;99955.72;;;2.91;63.42
38716;BME280;24833;49.324;8.694;2023-03-05T05:56:05;99956.53;;;2.92;63.64
38716;BME280;24833;49.324;8.694;2023-03-05T05:58:33;99953.06;;;2.91;63.42
38716;BME280;24833;49.324;8.694;2023-03-05T06:01:01;99948.63;;;2.92;63.24
38716;BME280;24833;49.324;8.694;2023-03-05T06:03:28;99940.88;;;2.90;64.98
38716;BME280;24833;49.324;8.694;2023-03-05T06:05:55;99946.97;;;2.91;64.40
38716;BME280;24833;49.324;8.694;2023-03-05T06:08:22;99942.69;;;2.90;64.50
38716;BME280;24833;49.324;8.694;2023-03-05T06:10:54;99935.75;;;2.89;64.86
38716;BME280;24833;49.324;8.694;2023-03-05T06:13:21;99948.09;;;2.88;65.09
38716;BME280;24833;49.324;8.694;2023-03-05T06:16:00;99942.81;;;2.88;64.44
38716;BME280;24833;49.324;8.694;2023-03-05T06:18:27;99950.75;;;2.88;64.92
38716;BME280;24833;49.324;8.694;2023-03-05T06:21:02;99948.09;;;2.88;65.94
38716;BME280;24833;49.324;8.694;2023-03-05T06:23:30;99946.41;;;2.87;64.83
38716;BME280;24833;49.324;8.694;2023-03-05T06:26:02;99944.75;;;2.86;65.74
38716;BME280;24833;49.324;8.694;2023-03-05T06:28:30;99942.00;;;2.88;64.61
38716;BME280;24833;49.324;8.694;2023-03-05T06:31:10;99941.13;;;2.87;65.75
38716;BME280;24833;49.324;8.694;2023-03-05T06:33:38;99948.22;;;2.87;64.92
38716;BME280;24833;49.324;8.694;2023-03-05T06:36:09;99939.47;;;2.86;64.86
38716;BME280;24833;49.324;8.694;2023-03-05T06:38:37;99943.78;;;2.87;64.35
38716;BME280;24833;49.324;8.694;2023-03-05T06:41:12;99942.00;;;2.88;64.52
38716;BME280;24833;49.324;8.694;2023-03-05T06:43:42;99936.72;;;2.88;64.42
38716;BME280;24833;49.324;8.694;2023-03-05T06:46:25;99942.81;;;2.88;63.87
38716;BME280;24833;49.324;8.694;2023-03-05T06:48:56;99932.41;;;2.87;65.72
38716;BME280;24833;49.324;8.694;2023-03-05T06:51:33;99939.47;;;2.86;65.41
38716;BME280;24833;49.324;8.694;2023-03-05T06:54:07;99936.72;;;2.88;65.37
38716;BME280;24833;49.324;8.694;2023-03-05T06:56:38;99943.66;;;2.89;64.89
38716;BME280;24833;49.324;8.694;2023-03-05T06:59:09;99946.41;;;2.87;65.78
38716;BME280;24833;49.324;8.694;2023-03-05T07:01:36;99932.41;;;2.87;64.99
38716;BME280;24833;49.324;8.694;2023-03-05T07:04:04;99942.13;;;2.86;65.76
38716;BME280;24833;49.324;8.694;2023-03-05T07:06:35;99935.19;;;2.85;64.64
38716;BME280;24833;49.324;8.694;2023-03-05T07:09:06;99934.19;;;2.86;64.35
38716;BME280;24833;49.324;8.694;2023-03-05T07:11:34;99941.13;;;2.87;64.59
38716;BME280;24833;49.324;8.694;2023-03-05T07:14:01;99938.50;;;2.87;64.53
38716;BME280;24833;49.324;8.694;2023-03-05T07:16:31;99937.56;;;2.88;64.06
38716;BME280;24833;49.324;8.694;2023-03-05T07:19:02;99939.22;;;2.89;64.59
38716;BME280;24833;49.324;8.694;2023-03-05T07:21:31;99933.94;;;2.89;64.79
38716;BME280;24833;49.324;8.694;2023-03-05T07:24:01;99939.22;;;2.89;64.64
38716;BME280;24833;49.324;8.694;2023-03-05T07:26:29;99928.66;;;2.89;64.50
38716;BME280;24833;49.324;8.694;2023-03-05T07:28:56;99934.75;;;2.90;64.54
38716;BME280;24833;49.324;8.694;2023-03-05T07:31:25;99935.59;;;2.90;64.32
38716;BME280;24833;49.324;8.694;2023-03-05T07:34:00;99936.44;;;2.91;65.10
38716;BME280;24833;49.324;8.694;2023-03-05T07:36:29;99931.97;;;2.91;64.35
38716;BME280;24833;49.324;8.694;2023-03-05T07:38:56;99928.38;;;2.92;64.33
38716;BME280;24833;49.324;8.694;2023-03-05T07:41:24;99926.56;;;2.93;64.62
38716;BME280;24833;49.324;8.694;2023-03-05T07:43:53;99923.91;;;2.93;64.82
38716;BME280;24833;49.324;8.694;2023-03-05T07:46:24;99926.44;;;2.94;64.37
38716;BME280;24833;49.324;8.694;2023-03-05T07:48:52;99930.59;;;2.97;64.46
38716;BME280;24833;49.324;8.694;2023-03-05T07:51:22;99934.03;;;2.97;65.07
38716;BME280;24833;49.324;8.694;2023-03-05T07:53:52;99926.81;;;2.99;64.82
38716;BME280;24833;49.324;8.694;2023-03-05T07:56:24;99929.34;;;3.01;64.39
38716;BME280;24833;49.324;8.694;2023-03-05T07:58:51;99935.28;;;3.03;64.39
38716;BME280;24833;49.324;8.694;2023-03-05T08:01:18;99927.22;;;3.05;64.66
38716;BME280;24833;49.324;8.694;2023-03-05T08:03:46;99933.19;;;3.07;64.64
38716;BME280;24833;49.324;8.694;2023-03-05T08:06:13;99925.00;;;3.10;65.04
38716;BME280;24833;49.324;8.694;2023-03-05T08:08:40;99928.31;;;3.12;64.46
38716;BME280;24833;49.324;8.694;2023-03-05T08:11:11;99929.69;;;3.16;64.63
38716;BME280;24833;49.324;8.694;2023-03-05T08:13:39;99928.41;;;3.20;64.85
38716;BME280;24833;49.324;8.694;2023-03-05T08:16:18;99926.34;;;3.23;64.54
38716;BME280;24833;49.324;8.694;2023-03-05T08:18:46;99921.59;;;3.27;64.85
38716;BME280;24833;49.324;8.694;2023-03-05T08:21:20;99917.69;;;3.31;65.04
38716;BME280;24833;49.324;8.694;2023-03-05T08:23:47;99912.00;;;3.36;64.72
38716;BME280;24833;49.324;8.694;2023-03-05T08:26:17;99912.50;;;3.39;64.85
38716;BME280;24833;49.324;8.694;2023-03-05T08:28:45;99909.28;;;3.45;65.26
38716;BME280;24833;49.324;8.694;2023-03-05T08:31:14;99908.84;;;3.50;65.01
38716;BME280;24833;49.324;8.694;2023-03-05T08:33:42;99910.75;;;3.58;65.20
38716;BME280;24833;49.324;8.694;2023-03-05T08:36:09;99909.50;;;3.62;65.65
38716;BME280;24833;49.324;8.694;2023-03-05T08:38:36;99904.59;;;3.67;65.43
38716;BME280;24833;49.324;8.694;2023-03-05T08:41:04;99901.34;;;3.73;65.28
38716;BME280;24833;49.324;8.694;2023-03-05T08:43:31;99904.38;;;3.78;65.30
38716;BME280;24833;49.324;8.694;2023-03-05T08:46:00;99904.63;;;3.85;65.40
38716;BME280;24833;49.324;8.694;2023-03-05T08:48:28;99901.53;;;3.89;65.42
38716;BME280;24833;49.324;8.694;2023-03-05T08:50:55;99905.25;;;3.96;65.48
38716;BME280;24833;49.324;8.694;2023-03-05T08:53:22;99899.50;;;4.01;65.58
38716;BME280;24833;49.324;8.694;2023-03-05T08:55:55;99898.91;;;4.07;65.44
38716;BME280;24833;49.324;8.694;2023-03-05T08:58:22;99902.59;;;4.14;65.63
38716;BME280;24833;49.324;8.694;2023-03-05T09:00:50;99898.34;;;4.21;66.04
38716;BME280;24833;49.324;8.694;2023-03-05T09:03:17;99905.69;;;4.27;65.79
38716;BME280;24833;49.324;8.694;2023-03-05T09:05:44;99897.97;;;4.34;65.86
38716;BME280;24833;49.324;8.694;2023-03-05T09:08:11;99903.50;;;4.41;66.09
38716;BME280;24833;49.324;8.694;2023-03-05T09:10:41;99895.66;;;4.49;66.16
38716;BME280;24833;49.324;8.694;2023-03-05T09:13:08;99896.81;;;4.54;66.52
38716;BME280;24833;49.324;8.694;2023-03-05T09:15:36;99896.22;;;4.60;66.15
38716;BME280;24833;49.324;8.694;2023-03-05T09:18:04;99897.25;;;4.68;66.27
38716;BME280;24833;49.324;8.694;2023-03-05T09:20:31;99887.72;;;4.75;66.42
38716;BME280;24833;49.324;8.694;2023-03-05T09:22:59;99875.22;;;4.85;66.36
38716;BME280;24833;49.324;8.694;2023-03-05T09:25:26;99883.91;;;4.95;66.36
38716;BME280;24833;49.324;8.694;2023-03-05T09:27:53;99880.31;;;5.04;66.75
38716;BME280;24833;49.324;8.694;2023-03-05T09:30:20;99871.41;;;5.13;66.90
38716;BME280;24833;49.324;8.694;2023-03-05T09:32:47;99866.00;;;5.23;67.07
38716;BME280;24833;49.324;8.694;2023-03-05T09:35:16;99869.50;;;5.32;66.89
38716;BME280;24833;49.324;8.694;2023-03-05T09:37:44;99858.94;;;5.40;67.09
38716;BME280;24833;49.324;8.694;2023-03-05T09:40:16;99867.91;;;5.47;66.90
38716;BME280;24833;49.324;8.694;2023-03-05T09:43:16;99866.97;;;5.56;66.67
38716;BME280;24833;49.324;8.694;2023-03-05T09:48:52;99862.34;;;5.74;66.94
38716;BME280;24833;49.324;8.694;2023-03-05T09:51:27;99855.75;;;5.79;67.22
38716;BME280;24833;49.324;8.694;2023-03-05T09:54:09;99861.22;;;5.85;66.97
38716;BME280;24833;49.324;8.694;2023-03-05T09:56:53;99861.75;;;5.89;66.92
38716;BME280;24833;49.324;8.694;2023-03-05T09:59:49;99856.13;;;5.92;67.05
38716;BME280;24833;49.324;8.694;2023-03-05T10:02:30;99861.09;;;5.95;66.69
38716;BME280;24833;49.324;8.694;2023-03-05T10:05:25;99849.34;;;5.97;66.55
38716;BME280;24833;49.324;8.694;2023-03-05T10:08:02;99847.53;;;5.98;66.89
38716;BME280;24833;49.324;8.694;2023-03-05T10:10:46;99850.19;;;5.98;66.62
38716;BME280;24833;49.324;8.694;2023-03-05T10:13:47;99850.19;;;5.98;66.71
38716;BME280;24833;49.324;8.694;2023-03-05T10:23:22;99841.38;;;5.89;66.34
38716;BME280;24833;49.324;8.694;2023-03-05T10:26:05;99835.56;;;5.86;66.16
38716;BME280;24833;49.324;8.694;2023-03-05T10:34:43;99829.59;;;5.76;66.12
38716;BME280;24833;49.324;8.694;2023-03-05T10:45:45;99820.97;;;5.73;66.24
38716;BME280;24833;49.324;8.694;2023-03-05T10:53:57;99801.41;;;5.74;66.08
38716;BME280;24833;49.324;8.694;2023-03-05T10:56:27;99807.53;;;5.75;66.29
38716;BME280;24833;49.324;8.694;2023-03-05T10:58:54;99801.28;;;5.76;66.07
38716;BME280;24833;49.324;8.694;2023-03-05T11:01:25;99803.75;;;5.78;66.15
38716;BME280;24833;49.324;8.694;2023-03-05T11:04:04;99793.81;;;5.80;66.35
38716;BME280;24833;49.324;8.694;2023-03-05T11:06:41;99793.81;;;5.80;66.15
38716;BME280;24833;49.324;8.694;2023-03-05T11:09:24;99796.28;;;5.81;66.07
38716;BME280;24833;49.324;8.694;2023-03-05T11:12:15;99788.22;;;5.83;66.18
38716;BME280;24833;49.324;8.694;2023-03-05T11:15:05;99785.38;;;5.84;65.94
38716;BME280;24833;49.324;8.694;2023-03-05T11:18:02;99782.72;;;5.84;65.95
38716;BME280;24833;49.324;8.694;2023-03-05T11:20:35;99779.91;;;5.86;65.90
38716;BME280;24833;49.324;8.694;2023-03-05T11:23:22;99782.56;;;5.86;66.17
38716;BME280;24833;49.324;8.694;2023-03-05T11:31:21;99773.97;;;5.84;65.88
38716;BME280;24833;49.324;8.694;2023-03-05T11:34:20;99760.03;;;5.82;65.63
38716;BME280;24833;49.324;8.694;2023-03-05T11:39:22;99762.84;;;5.80;65.59
38716;BME280;24833;49.324;8.694;2023-03-05T11:44:47;99763.03;;;5.79;65.72
38716;BME280;24833;49.324;8.694;2023-03-05T11:47:36;99757.06;;;5.77;65.46
38716;BME280;24833;49.324;8.694;2023-03-05T11:50:27;99759.72;;;5.77;65.60
38716;BME280;24833;49.324;8.694;2023-03-05T11:53:10;99744.81;;;5.76;65.35
38716;BME280;24833;49.324;8.694;2023-03-05T11:55:53;99752.09;;;5.73;65.52
38716;BME280;24833;49.324;8.694;2023-03-05T11:59:10;99748.44;;;5.74;65.54
38716;BME280;24833;49.324;8.694;2023-03-05T12:01:55;99744.13;;;5.73;65.52
38716;BME280;24833;49.324;8.694;2023-03-05T12:04:23;99732.53;;;5.74;65.77
38716;BME280;24833;49.324;8.694;2023-03-05T12:07:00;99731.56;;;5.76;65.57
38716;BME280;24833;49.324;8.694;2023-03-05T12:09:47;99734.06;;;5.77;65.71
38716;BME280;24833;49.324;8.694;2023-03-05T12:12:39;99723.28;;;5.79;65.90
38716;BME280;24833;49.324;8.694;2023-03-05T12:15:31;99727.41;;;5.81;65.55
38716;BME280;24833;49.324;8.694;2023-03-05T12:24:02;99711.53;;;5.89;65.47
38716;BME280;24833;49.324;8.694;2023-03-05T12:32:05;99702.78;;;5.97;65.42
38716;BME280;24833;49.324;8.694;2023-03-05T12:40:29;99682.06;;;6.09;65.55
38716;BME280;24833;49.324;8.694;2023-03-05T12:53:18;99665.28;;;6.08;65.22
38716;BME280;24833;49.324;8.694;2023-03-05T12:55:59;99660.84;;;6.09;65.18
38716;BME280;24833;49.324;8.694;2023-03-05T12:58:43;99659.84;;;6.10;65.50
38716;BME280;24833;49.324;8.694;2023-03-05T13:04:10;99651.06;;;6.09;64.98
38716;BME280;24833;49.324;8.694;2023-03-05T13:06:40;99646.59;;;6.10;65.23
38716;BME280;24833;49.324;8.694;2023-03-05T13:09:25;99650.06;;;6.10;65.20
38716;BME280;24833;49.324;8.694;2023-03-05T13:11:54;99644.59;;;6.12;64.91
38716;BME280;24833;49.324;8.694;2023-03-05T13:14:40;99644.59;;;6.12;65.03
38716;BME280;24833;49.324;8.694;2023-03-05T13:20:32;99636.66;;;6.12;64.98
38716;BME280;24833;49.324;8.694;2023-03-05T13:26:13;99630.53;;;6.11;65.11
38716;BME280;24833;49.324;8.694;2023-03-05T13:28:42;99636.66;;;6.12;64.82
38716;BME280;24833;49.324;8.694;2023-03-05T13:31:18;99627.88;;;6.11;64.92
38716;BME280;24833;49.324;8.694;2023-03-05T13:33:55;99627.88;;;6.11;64.77
38716;BME280;24833;49.324;8.694;2023-03-05T13:36:25;99624.56;;;6.09;64.43
38716;BME280;24833;49.324;8.694;2023-03-05T13:38:53;99620.41;;;6.07;64.46
38716;BME280;24833;49.324;8.694;2023-03-05T13:41:26;99613.66;;;6.04;64.24
38716;BME280;24833;49.324;8.694;2023-03-05T13:43:59;99615.66;;;6.02;64.31
38716;BME280;24833;49.324;8.694;2023-03-05T13:46:32;99614.78;;;6.01;64.14
38716;BME280;24833;49.324;8.694;2023-03-05T13:49:23;99617.78;;;5.98;64.42
38716;BME280;24833;49.324;8.694;2023-03-05T13:51:56;99613.69;;;5.96;63.99
38716;BME280;24833;49.324;8.694;2023-03-05T13:54:26;99612.00;;;5.95;64.22
38716;BME280;24833;49.324;8.694;2023-03-05T13:57:04;99610.34;;;5.94;64.36
38716;BME280;24833;49.324;8.694;2023-03-05T13:59:34;99606.38;;;5.90;63.89
38716;BME280;24833;49.324;8.694;2023-03-05T14:02:18;99610.03;;;5.89;64.19
38716;BME280;24833;49.324;8.694;2023-03-05T14:04:46;99601.38;;;5.87;64.00
38716;BME280;24833;49.324;8.694;2023-03-05T14:07:24;99602.22;;;5.87;64.14
38716;BME280;24833;49.324;8.694;2023-03-05T14:09:53;99598.75;;;5.87;64.04
38716;BME280;24833;49.324;8.694;2023-03-05T14:12:38;99599.75;;;5.86;64.26
38716;BME280;24833;49.324;8.694;2023-03-05T14:15:30;99591.97;;;5.84;64.27
38716;BME280;24833;49.324;8.694;2023-03-05T14:20:41;99589.66;;;5.81;64.04
38716;BME280;24833;49.324;8.694;2023-03-05T14:26:21;99585.53;;;5.79;64.06
38716;BME280;24833;49.324;8.694;2023-03-05T14:28:59;99582.03;;;5.78;63.90
38716;BME280;24833;49.324;8.694;2023-03-05T14:31:30;99575.28;;;5.76;64.00
38716;BME280;24833;49.324;8.694;2023-03-05T14:34:04;99569.97;;;5.76;64.16
38716;BME280;24833;49.324;8.694;2023-03-05T14:36:33;99572.78;;;5.74;63.98
38716;BME280;24833;49.324;8.694;2023-03-05T14:39:00;99566.66;;;5.73;64.07
38716;BME280;24833;49.324;8.694;2023-03-05T14:41:40;99559.69;;;5.72;63.95
38716;BME280;24833;49.324;8.694;2023-03-05T14:44:13;99554.41;;;5.72;64.11
38716;BME280;24833;49.324;8.694;2023-03-05T14:46:42;99547.47;;;5.71;63.89
38716;BME280;24833;49.324;8.694;2023-03-05T14:49:09;99549.28;;;5.71;63.76
38716;BME280;24833;49.324;8.694;2023-03-05T14:51:40;99540.50;;;5.70;64.11
38716;BME280;24833;49.324;8.694;2023-03-05T14:54:23;99536.22;;;5.69;63.91
38716;BME280;24833;49.324;8.694;2023-03-05T14:56:52;99539.88;;;5.68;64.12
38716;BME280;24833;49.324;8.694;2023-03-05T14:59:19;99540.00;;;5.67;63.82